This is the latest recevied weather packets stored in our database for station/object NK2J. If no packets are shown the sender has not sent any weather packets the latest 1 day(s).
| Time | Temp. | Humidity | Pressure | Rain* | Wind** | Luminosity | Snow |
|---|---|---|---|---|---|---|---|
| 1836274850 | 30.56° C | 44% | 1013.9 hPa | 0 mm | 0 m/s | 0 W/m² | - |
| 1836274547 | 31.11° C | 44% | 1013.9 hPa | 0 mm | 0 m/s | 0 W/m² | - |
| 1836274401 | 30.56° C | 45% | 1013.9 hPa | 0 mm | 0 m/s | 0 W/m² | - |
| 1836274246 | 31.11° C | 44% | 1013.6 hPa | 0 mm | 0.45 m/s, 129° | 0 W/m² | - |
| 1836273940 | 31.11° C | 45% | 1013.7 hPa | 0 mm | 0.45 m/s, 127° | 0 W/m² | - |
| 1778048193 | 17.78° C | 37% | 1015 hPa | 0 mm | 0 m/s | 0 W/m² | - |
| 1778047891 | 17.78° C | 37% | 1014.8 hPa | 0 mm | 0 m/s | 0 W/m² | - |
| 1778047590 | 18.33° C | 36% | 1014.9 hPa | 0 mm | 0 m/s | 0 W/m² | - |
| 1778047286 | 17.78° C | 35% | 1015.1 hPa | 0 mm | 0 m/s | 0 W/m² | - |
| 1778046983 | 18.33° C | 35% | 1014.6 hPa | 0 mm | 0 m/s | 0 W/m² | - |
| 1778046680 | 18.89° C | 37% | 1014.6 hPa | 0 mm | 0 m/s | 0 W/m² | - |
| 1778046377 | 18.33° C | 36% | 1014.8 hPa | 0 mm | 0 m/s | 0 W/m² | - |
| 1778046073 | 18.33° C | 36% | 1014.7 hPa | 0 mm | 0 m/s | 0 W/m² | - |
| 1778045771 | 18.33° C | 35% | 1014.6 hPa | 0 mm | 0 m/s | 0 W/m² | - |
| 1778045469 | 18.33° C | 34% | 1014.6 hPa | 0 mm | 0 m/s | 0 W/m² | - |
| 1778045167 | 18.33° C | 34% | 1014.6 hPa | 0 mm | 0 m/s | 0 W/m² | - |
| 1778044865 | 18.89° C | 34% | 1014.6 hPa | 0 mm | 0 m/s | 0 W/m² | - |
| 1778044561 | 19.44° C | 33% | 1014.5 hPa | 0 mm | 0 m/s | 0 W/m² | - |
| 1778044258 | 20° C | 32% | 1014.7 hPa | 0 mm | 0 m/s | 0 W/m² | - |
| 1778043956 | 20° C | 31% | 1014.6 hPa | 0 mm | 0 m/s | 0 W/m² | - |
| 1778043653 | 20° C | 31% | 1014.4 hPa | 0 mm | 0 m/s | 0 W/m² | - |
| 1778043350 | 20° C | 31% | 1014.4 hPa | 0 mm | 0 m/s | 0 W/m² | - |
| 1778043046 | 20° C | 31% | 1014.4 hPa | 0 mm | 0 m/s | 0 W/m² | - |
| 1778042744 | 20° C | 30% | 1014.4 hPa | 0 mm | 0 m/s | 0 W/m² | - |
| 1778042441 | 20.56° C | 30% | 1014.1 hPa | 0 mm | 0.45 m/s, 110° | 0 W/m² | - |
* Rain latest hour (hover to see other rain measurements)
** Current wind speed in m/s (hover to see current wind gust speed)